sensor_id;sensor_type;location;lat;lon;timestamp;temperature;humidity
59857;DHT22;45733;52.668;6.860;2023-02-04T00:02:33;6.80;99.90
59857;DHT22;45733;52.668;6.860;2023-02-04T00:05:38;6.80;99.90
59857;DHT22;45733;52.668;6.860;2023-02-04T00:08:33;6.80;99.90
59857;DHT22;45733;52.668;6.860;2023-02-04T00:17:06;6.80;99.90
59857;DHT22;45733;52.668;6.860;2023-02-04T00:19:45;6.80;99.90
59857;DHT22;45733;52.668;6.860;2023-02-04T00:22:22;6.90;99.90
59857;DHT22;45733;52.668;6.860;2023-02-04T00:33:12;6.80;99.90
59857;DHT22;45733;52.668;6.860;2023-02-04T00:36:25;6.90;99.90
59857;DHT22;45733;52.668;6.860;2023-02-04T00:39:43;6.90;99.90
59857;DHT22;45733;52.668;6.860;2023-02-04T00:46:55;6.90;99.90
59857;DHT22;45733;52.668;6.860;2023-02-04T00:49:29;6.90;99.90
59857;DHT22;45733;52.668;6.860;2023-02-04T00:52:30;6.80;99.90
59857;DHT22;45733;52.668;6.860;2023-02-04T00:55:21;6.90;99.90
59857;DHT22;45733;52.668;6.860;2023-02-04T01:01:37;6.90;99.90
59857;DHT22;45733;52.668;6.860;2023-02-04T01:04:03;6.80;99.90
59857;DHT22;45733;52.668;6.860;2023-02-04T01:06:42;6.90;99.90
59857;DHT22;45733;52.668;6.860;2023-02-04T01:20:08;6.80;99.90
59857;DHT22;45733;52.668;6.860;2023-02-04T01:30:04;6.90;99.90
59857;DHT22;45733;52.668;6.860;2023-02-04T01:32:58;7.00;99.90
59857;DHT22;45733;52.668;6.860;2023-02-04T01:35:24;6.90;99.90
59857;DHT22;45733;52.668;6.860;2023-02-04T01:38:05;6.90;99.90
59857;DHT22;45733;52.668;6.860;2023-02-04T01:41:00;6.90;99.90
59857;DHT22;45733;52.668;6.860;2023-02-04T01:43:30;7.00;99.90
59857;DHT22;45733;52.668;6.860;2023-02-04T01:46:03;6.90;99.90
59857;DHT22;45733;52.668;6.860;2023-02-04T01:48:52;6.90;99.90
59857;DHT22;45733;52.668;6.860;2023-02-04T01:51:27;6.90;99.90
59857;DHT22;45733;52.668;6.860;2023-02-04T02:03:58;6.90;99.90
59857;DHT22;45733;52.668;6.860;2023-02-04T02:06:38;6.90;99.90
59857;DHT22;45733;52.668;6.860;2023-02-04T02:13:27;6.90;99.90
59857;DHT22;45733;52.668;6.860;2023-02-04T02:16:13;6.90;99.90
59857;DHT22;45733;52.668;6.860;2023-02-04T02:19:29;6.90;99.90
59857;DHT22;45733;52.668;6.860;2023-02-04T02:25:33;6.90;99.90
59857;DHT22;45733;52.668;6.860;2023-02-04T02:28:41;6.80;99.90
59857;DHT22;45733;52.668;6.860;2023-02-04T02:34:27;6.90;99.90
59857;DHT22;45733;52.668;6.860;2023-02-04T02:37:00;7.00;99.90
59857;DHT22;45733;52.668;6.860;2023-02-04T02:39:33;7.00;99.90
59857;DHT22;45733;52.668;6.860;2023-02-04T02:42:10;6.90;99.90
59857;DHT22;45733;52.668;6.860;2023-02-04T02:45:04;7.00;99.90
59857;DHT22;45733;52.668;6.860;2023-02-04T02:47:39;6.90;99.90
59857;DHT22;45733;52.668;6.860;2023-02-04T02:52:44;6.90;99.90
59857;DHT22;45733;52.668;6.860;2023-02-04T02:55:15;6.90;99.90
59857;DHT22;45733;52.668;6.860;2023-02-04T02:57:52;6.90;99.90
59857;DHT22;45733;52.668;6.860;2023-02-04T03:00:45;6.90;99.90
59857;DHT22;45733;52.668;6.860;2023-02-04T03:03:48;6.90;99.90
59857;DHT22;45733;52.668;6.860;2023-02-04T03:06:40;6.90;99.90
59857;DHT22;45733;52.668;6.860;2023-02-04T03:09:12;6.90;99.90
59857;DHT22;45733;52.668;6.860;2023-02-04T03:11:44;6.90;99.90
59857;DHT22;45733;52.668;6.860;2023-02-04T03:14:13;6.80;99.90
59857;DHT22;45733;52.668;6.860;2023-02-04T03:16:51;7.00;99.90
59857;DHT22;45733;52.668;6.860;2023-02-04T03:19:27;6.90;99.90
59857;DHT22;45733;52.668;6.860;2023-02-04T03:22:01;7.10;99.90
59857;DHT22;45733;52.668;6.860;2023-02-04T03:24:31;6.90;99.90
59857;DHT22;45733;52.668;6.860;2023-02-04T03:30:42;7.00;99.90
59857;DHT22;45733;52.668;6.860;2023-02-04T03:33:08;6.90;99.90
59857;DHT22;45733;52.668;6.860;2023-02-04T03:35:35;7.00;99.90
59857;DHT22;45733;52.668;6.860;2023-02-04T03:38:12;6.90;99.90
59857;DHT22;45733;52.668;6.860;2023-02-04T03:40:41;7.00;99.90
59857;DHT22;45733;52.668;6.860;2023-02-04T03:43:07;6.90;99.90
59857;DHT22;45733;52.668;6.860;2023-02-04T03:45:59;7.00;99.90
59857;DHT22;45733;52.668;6.860;2023-02-04T03:48:31;6.90;99.90
59857;DHT22;45733;52.668;6.860;2023-02-04T03:53:52;7.00;99.90
59857;DHT22;45733;52.668;6.860;2023-02-04T03:56:27;7.00;99.90
59857;DHT22;45733;52.668;6.860;2023-02-04T03:59:02;7.00;99.90
59857;DHT22;45733;52.668;6.860;2023-02-04T04:01:29;6.90;99.90
59857;DHT22;45733;52.668;6.860;2023-02-04T04:04:16;6.90;99.90
59857;DHT22;45733;52.668;6.860;2023-02-04T04:06:51;6.90;99.90
59857;DHT22;45733;52.668;6.860;2023-02-04T04:09:21;6.90;99.90
59857;DHT22;45733;52.668;6.860;2023-02-04T04:11:50;6.90;99.90
59857;DHT22;45733;52.668;6.860;2023-02-04T04:14:19;6.90;99.90
59857;DHT22;45733;52.668;6.860;2023-02-04T04:16:47;6.90;99.90
59857;DHT22;45733;52.668;6.860;2023-02-04T04:19:17;6.90;99.90
59857;DHT22;45733;52.668;6.860;2023-02-04T04:21:42;7.00;99.90
59857;DHT22;45733;52.668;6.860;2023-02-04T04:24:08;7.10;99.90
59857;DHT22;45733;52.668;6.860;2023-02-04T04:26:37;6.90;99.90
59857;DHT22;45733;52.668;6.860;2023-02-04T04:29:03;6.90;99.90
59857;DHT22;45733;52.668;6.860;2023-02-04T04:31:34;7.00;99.90
59857;DHT22;45733;52.668;6.860;2023-02-04T04:34:00;6.90;99.90
59857;DHT22;45733;52.668;6.860;2023-02-04T04:36:32;6.90;99.90
59857;DHT22;45733;52.668;6.860;2023-02-04T04:39:00;6.90;99.90
59857;DHT22;45733;52.668;6.860;2023-02-04T04:41:29;7.00;99.90
59857;DHT22;45733;52.668;6.860;2023-02-04T04:44:04;6.90;99.90
59857;DHT22;45733;52.668;6.860;2023-02-04T04:46:30;6.90;99.90
59857;DHT22;45733;52.668;6.860;2023-02-04T04:48:59;6.90;99.90
59857;DHT22;45733;52.668;6.860;2023-02-04T04:51:28;6.80;99.90
59857;DHT22;45733;52.668;6.860;2023-02-04T04:54:27;6.80;99.90
59857;DHT22;45733;52.668;6.860;2023-02-04T04:57:14;6.90;99.90
59857;DHT22;45733;52.668;6.860;2023-02-04T04:59:46;7.00;99.90
59857;DHT22;45733;52.668;6.860;2023-02-04T05:02:48;7.00;99.90
59857;DHT22;45733;52.668;6.860;2023-02-04T05:05:23;6.90;99.90
59857;DHT22;45733;52.668;6.860;2023-02-04T05:07:58;6.90;99.90
59857;DHT22;45733;52.668;6.860;2023-02-04T05:10:46;6.80;99.90
59857;DHT22;45733;52.668;6.860;2023-02-04T05:13:25;6.90;99.90
59857;DHT22;45733;52.668;6.860;2023-02-04T05:16:00;6.90;99.90
59857;DHT22;45733;52.668;6.860;2023-02-04T05:18:35;6.90;99.90
59857;DHT22;45733;52.668;6.860;2023-02-04T05:21:05;6.90;99.90
59857;DHT22;45733;52.668;6.860;2023-02-04T05:23:45;6.90;99.90
59857;DHT22;45733;52.668;6.860;2023-02-04T05:26:13;6.90;99.90
59857;DHT22;45733;52.668;6.860;2023-02-04T05:28:49;7.00;99.90
59857;DHT22;45733;52.668;6.860;2023-02-04T05:31:24;6.90;99.90
59857;DHT22;45733;52.668;6.860;2023-02-04T05:33:52;7.00;99.90
59857;DHT22;45733;52.668;6.860;2023-02-04T05:36:21;7.00;99.90
59857;DHT22;45733;52.668;6.860;2023-02-04T05:39:07;6.80;99.90
59857;DHT22;45733;52.668;6.860;2023-02-04T05:41:45;6.90;99.90
59857;DHT22;45733;52.668;6.860;2023-02-04T05:44:13;6.90;99.90
59857;DHT22;45733;52.668;6.860;2023-02-04T05:46:41;6.80;99.90
59857;DHT22;45733;52.668;6.860;2023-02-04T05:49:09;6.90;99.90
59857;DHT22;45733;52.668;6.860;2023-02-04T05:51:39;6.80;99.90
59857;DHT22;45733;52.668;6.860;2023-02-04T05:54:05;6.70;99.90
59857;DHT22;45733;52.668;6.860;2023-02-04T05:56:31;6.80;99.90
59857;DHT22;45733;52.668;6.860;2023-02-04T05:59:06;6.70;99.90
59857;DHT22;45733;52.668;6.860;2023-02-04T06:01:43;6.80;99.90
59857;DHT22;45733;52.668;6.860;2023-02-04T06:04:09;6.60;99.90
59857;DHT22;45733;52.668;6.860;2023-02-04T06:06:53;6.70;99.90
59857;DHT22;45733;52.668;6.860;2023-02-04T06:09:18;6.70;99.90
59857;DHT22;45733;52.668;6.860;2023-02-04T06:11:47;6.60;99.90
59857;DHT22;45733;52.668;6.860;2023-02-04T06:14:33;6.40;99.90
59857;DHT22;45733;52.668;6.860;2023-02-04T06:17:02;6.50;99.90
59857;DHT22;45733;52.668;6.860;2023-02-04T06:19:28;6.50;99.90
59857;DHT22;45733;52.668;6.860;2023-02-04T06:21:57;6.50;99.90
59857;DHT22;45733;52.668;6.860;2023-02-04T06:24:24;6.60;99.90
59857;DHT22;45733;52.668;6.860;2023-02-04T06:26:55;6.60;99.90
59857;DHT22;45733;52.668;6.860;2023-02-04T06:29:21;6.60;99.90
59857;DHT22;45733;52.668;6.860;2023-02-04T06:31:47;6.40;99.90
59857;DHT22;45733;52.668;6.860;2023-02-04T06:34:20;6.50;99.90
59857;DHT22;45733;52.668;6.860;2023-02-04T06:36:48;6.50;99.90
59857;DHT22;45733;52.668;6.860;2023-02-04T06:39:14;6.50;99.90
59857;DHT22;45733;52.668;6.860;2023-02-04T06:41:40;6.50;99.90
59857;DHT22;45733;52.668;6.860;2023-02-04T06:44:09;6.50;99.90
59857;DHT22;45733;52.668;6.860;2023-02-04T06:46:34;6.50;99.90
59857;DHT22;45733;52.668;6.860;2023-02-04T06:49:00;6.60;99.90
59857;DHT22;45733;52.668;6.860;2023-02-04T06:51:35;6.60;99.90
59857;DHT22;45733;52.668;6.860;2023-02-04T06:54:06;6.70;99.90
59857;DHT22;45733;52.668;6.860;2023-02-04T06:56:35;6.60;99.90
59857;DHT22;45733;52.668;6.860;2023-02-04T06:59:02;6.50;99.90
59857;DHT22;45733;52.668;6.860;2023-02-04T07:01:30;6.40;99.90
59857;DHT22;45733;52.668;6.860;2023-02-04T07:04:00;6.30;99.90
59857;DHT22;45733;52.668;6.860;2023-02-04T07:06:25;6.30;99.90
59857;DHT22;45733;52.668;6.860;2023-02-04T07:08:53;6.20;99.90
59857;DHT22;45733;52.668;6.860;2023-02-04T07:11:29;6.30;99.90
59857;DHT22;45733;52.668;6.860;2023-02-04T07:13:55;6.20;99.90
59857;DHT22;45733;52.668;6.860;2023-02-04T07:19:54;6.10;99.90
59857;DHT22;45733;52.668;6.860;2023-02-04T07:22:24;6.10;99.90
59857;DHT22;45733;52.668;6.860;2023-02-04T07:24:52;6.10;99.90
59857;DHT22;45733;52.668;6.860;2023-02-04T07:27:30;6.10;99.90
59857;DHT22;45733;52.668;6.860;2023-02-04T07:30:07;6.10;99.90
59857;DHT22;45733;52.668;6.860;2023-02-04T07:33:03;6.10;99.90
59857;DHT22;45733;52.668;6.860;2023-02-04T07:35:29;6.10;99.90
59857;DHT22;45733;52.668;6.860;2023-02-04T07:38:07;6.10;99.90
59857;DHT22;45733;52.668;6.860;2023-02-04T07:40:45;6.10;99.90
59857;DHT22;45733;52.668;6.860;2023-02-04T07:43:14;6.10;99.90
59857;DHT22;45733;52.668;6.860;2023-02-04T07:45:45;6.10;99.90
59857;DHT22;45733;52.668;6.860;2023-02-04T07:48:11;6.10;99.90
59857;DHT22;45733;52.668;6.860;2023-02-04T07:51:02;6.00;99.90
59857;DHT22;45733;52.668;6.860;2023-02-04T07:53:42;6.00;99.90
59857;DHT22;45733;52.668;6.860;2023-02-04T07:56:31;6.00;99.90
59857;DHT22;45733;52.668;6.860;2023-02-04T07:58:58;6.00;99.90
59857;DHT22;45733;52.668;6.860;2023-02-04T08:01:27;6.10;99.90
59857;DHT22;45733;52.668;6.860;2023-02-04T08:03:56;6.10;99.90
59857;DHT22;45733;52.668;6.860;2023-02-04T08:06:25;6.00;99.90
59857;DHT22;45733;52.668;6.860;2023-02-04T08:08:58;6.10;99.90
59857;DHT22;45733;52.668;6.860;2023-02-04T08:11:26;6.20;99.90
59857;DHT22;45733;52.668;6.860;2023-02-04T08:13:53;6.10;99.90
59857;DHT22;45733;52.668;6.860;2023-02-04T08:16:21;6.10;99.90
59857;DHT22;45733;52.668;6.860;2023-02-04T08:18:49;6.20;99.90
59857;DHT22;45733;52.668;6.860;2023-02-04T08:21:15;6.20;99.90
59857;DHT22;45733;52.668;6.860;2023-02-04T08:23:43;6.10;99.90
59857;DHT22;45733;52.668;6.860;2023-02-04T08:26:11;6.10;99.90
59857;DHT22;45733;52.668;6.860;2023-02-04T08:28:40;6.20;99.90
59857;DHT22;45733;52.668;6.860;2023-02-04T08:31:12;6.10;99.90
59857;DHT22;45733;52.668;6.860;2023-02-04T08:33:43;6.20;99.90
59857;DHT22;45733;52.668;6.860;2023-02-04T08:36:12;6.10;99.90
59857;DHT22;45733;52.668;6.860;2023-02-04T08:38:41;6.20;99.90
59857;DHT22;45733;52.668;6.860;2023-02-04T08:41:09;6.20;99.90
59857;DHT22;45733;52.668;6.860;2023-02-04T08:43:35;6.30;99.90
59857;DHT22;45733;52.668;6.860;2023-02-04T08:46:04;6.20;99.90
59857;DHT22;45733;52.668;6.860;2023-02-04T08:48:30;6.40;99.90
59857;DHT22;45733;52.668;6.860;2023-02-04T08:50:58;6.30;99.90
59857;DHT22;45733;52.668;6.860;2023-02-04T08:53:24;6.30;99.90
59857;DHT22;45733;52.668;6.860;2023-02-04T08:55:50;6.30;99.90
59857;DHT22;45733;52.668;6.860;2023-02-04T08:58:22;6.30;99.90
59857;DHT22;45733;52.668;6.860;2023-02-04T09:04:44;6.40;99.90
59857;DHT22;45733;52.668;6.860;2023-02-04T09:07:30;6.40;99.90
59857;DHT22;45733;52.668;6.860;2023-02-04T09:10:07;6.50;99.90
59857;DHT22;45733;52.668;6.860;2023-02-04T09:13:09;6.50;99.90
59857;DHT22;45733;52.668;6.860;2023-02-04T09:15:36;6.50;99.90
59857;DHT22;45733;52.668;6.860;2023-02-04T09:18:02;6.50;99.90
59857;DHT22;45733;52.668;6.860;2023-02-04T09:20:51;6.60;99.90
59857;DHT22;45733;52.668;6.860;2023-02-04T09:23:17;6.50;99.90
59857;DHT22;45733;52.668;6.860;2023-02-04T09:25:44;6.80;99.90
59857;DHT22;45733;52.668;6.860;2023-02-04T09:28:28;6.90;99.90
59857;DHT22;45733;52.668;6.860;2023-02-04T09:31:00;7.00;99.90
59857;DHT22;45733;52.668;6.860;2023-02-04T09:33:28;7.00;99.90
59857;DHT22;45733;52.668;6.860;2023-02-04T09:39:06;6.90;99.90
59857;DHT22;45733;52.668;6.860;2023-02-04T09:41:38;6.90;99.90
59857;DHT22;45733;52.668;6.860;2023-02-04T09:47:08;7.10;99.90
59857;DHT22;45733;52.668;6.860;2023-02-04T09:49:39;6.90;99.90
59857;DHT22;45733;52.668;6.860;2023-02-04T09:55:14;7.30;99.90
59857;DHT22;45733;52.668;6.860;2023-02-04T09:57:50;7.20;99.90
59857;DHT22;45733;52.668;6.860;2023-02-04T10:00:23;7.00;99.90
59857;DHT22;45733;52.668;6.860;2023-02-04T10:02:49;7.00;99.90
59857;DHT22;45733;52.668;6.860;2023-02-04T10:05:45;7.00;99.90
59857;DHT22;45733;52.668;6.860;2023-02-04T10:08:18;6.80;99.90
59857;DHT22;45733;52.668;6.860;2023-02-04T10:10:54;7.00;99.90
59857;DHT22;45733;52.668;6.860;2023-02-04T10:13:44;7.10;99.90
59857;DHT22;45733;52.668;6.860;2023-02-04T10:16:20;6.90;99.90
59857;DHT22;45733;52.668;6.860;2023-02-04T10:19:10;7.20;99.90
59857;DHT22;45733;52.668;6.860;2023-02-04T10:21:51;7.30;99.90
59857;DHT22;45733;52.668;6.860;2023-02-04T10:24:24;7.20;99.90
59857;DHT22;45733;52.668;6.860;2023-02-04T10:26:51;7.30;99.90
59857;DHT22;45733;52.668;6.860;2023-02-04T10:29:53;7.40;99.90
59857;DHT22;45733;52.668;6.860;2023-02-04T10:32:55;7.40;99.90
59857;DHT22;45733;52.668;6.860;2023-02-04T10:35:22;7.40;99.90
59857;DHT22;45733;52.668;6.860;2023-02-04T10:38:05;7.10;99.90
59857;DHT22;45733;52.668;6.860;2023-02-04T10:40:37;7.40;99.90
59857;DHT22;45733;52.668;6.860;2023-02-04T10:43:22;7.60;99.90
59857;DHT22;45733;52.668;6.860;2023-02-04T10:46:08;7.80;99.90
59857;DHT22;45733;52.668;6.860;2023-02-04T10:48:55;8.10;99.90
59857;DHT22;45733;52.668;6.860;2023-02-04T10:51:24;8.10;99.90
59857;DHT22;45733;52.668;6.860;2023-02-04T10:53:52;7.90;99.90
59857;DHT22;45733;52.668;6.860;2023-02-04T10:56:39;7.70;99.90
59857;DHT22;45733;52.668;6.860;2023-02-04T10:59:22;8.20;99.90
59857;DHT22;45733;52.668;6.860;2023-02-04T11:01:55;8.30;99.90
59857;DHT22;45733;52.668;6.860;2023-02-04T11:04:25;8.50;99.90
59857;DHT22;45733;52.668;6.860;2023-02-04T11:06:51;8.50;99.90
59857;DHT22;45733;52.668;6.860;2023-02-04T11:09:23;8.70;99.90
59857;DHT22;45733;52.668;6.860;2023-02-04T11:12:36;8.50;99.90
59857;DHT22;45733;52.668;6.860;2023-02-04T11:15:05;8.10;99.90
59857;DHT22;45733;52.668;6.860;2023-02-04T11:17:37;8.60;99.90
59857;DHT22;45733;52.668;6.860;2023-02-04T11:20:16;8.60;99.90
59857;DHT22;45733;52.668;6.860;2023-02-04T11:22:54;9.30;99.90
59857;DHT22;45733;52.668;6.860;2023-02-04T11:25:36;9.10;99.90
59857;DHT22;45733;52.668;6.860;2023-02-04T11:28:21;9.60;99.90
59857;DHT22;45733;52.668;6.860;2023-02-04T11:31:01;9.70;99.90
59857;DHT22;45733;52.668;6.860;2023-02-04T11:37:37;9.60;99.90
59857;DHT22;45733;52.668;6.860;2023-02-04T11:42:48;9.70;99.90
59857;DHT22;45733;52.668;6.860;2023-02-04T11:45:36;9.60;99.90
59857;DHT22;45733;52.668;6.860;2023-02-04T11:48:26;9.50;99.90
59857;DHT22;45733;52.668;6.860;2023-02-04T11:51:32;9.50;99.90
59857;DHT22;45733;52.668;6.860;2023-02-04T11:53:58;9.60;99.90
59857;DHT22;45733;52.668;6.860;2023-02-04T11:56:30;9.80;99.90
59857;DHT22;45733;52.668;6.860;2023-02-04T11:59:01;9.30;99.90
59857;DHT22;45733;52.668;6.860;2023-02-04T12:01:40;9.00;99.90
59857;DHT22;45733;52.668;6.860;2023-02-04T12:04:52;8.60;99.90
59857;DHT22;45733;52.668;6.860;2023-02-04T12:07:27;9.10;99.90
59857;DHT22;45733;52.668;6.860;2023-02-04T12:13:17;9.50;99.90
59857;DHT22;45733;52.668;6.860;2023-02-04T12:15:53;9.30;99.90
59857;DHT22;45733;52.668;6.860;2023-02-04T12:18:49;9.10;99.90
59857;DHT22;45733;52.668;6.860;2023-02-04T12:21:19;9.60;99.90
59857;DHT22;45733;52.668;6.860;2023-02-04T12:23:45;9.90;99.90
59857;DHT22;45733;52.668;6.860;2023-02-04T12:26:11;10.20;99.90
59857;DHT22;45733;52.668;6.860;2023-02-04T12:28:37;10.00;99.90
59857;DHT22;45733;52.668;6.860;2023-02-04T12:31:03;10.40;99.90
59857;DHT22;45733;52.668;6.860;2023-02-04T12:33:29;10.30;99.90
59857;DHT22;45733;52.668;6.860;2023-02-04T12:35:55;10.60;99.90
59857;DHT22;45733;52.668;6.860;2023-02-04T12:38:20;10.60;99.90
59857;DHT22;45733;52.668;6.860;2023-02-04T12:40:46;10.70;99.90
59857;DHT22;45733;52.668;6.860;2023-02-04T12:43:13;10.60;99.90
59857;DHT22;45733;52.668;6.860;2023-02-04T12:45:43;10.90;99.90
59857;DHT22;45733;52.668;6.860;2023-02-04T12:48:11;11.00;99.90
59857;DHT22;45733;52.668;6.860;2023-02-04T12:50:38;11.00;99.90
59857;DHT22;45733;52.668;6.860;2023-02-04T12:53:04;10.60;99.90
59857;DHT22;45733;52.668;6.860;2023-02-04T12:55:32;11.00;99.90
59857;DHT22;45733;52.668;6.860;2023-02-04T12:58:13;11.20;99.90
59857;DHT22;45733;52.668;6.860;2023-02-04T13:00:52;11.30;99.90
59857;DHT22;45733;52.668;6.860;2023-02-04T13:03:21;11.20;99.90
59857;DHT22;45733;52.668;6.860;2023-02-04T13:05:58;11.10;99.90
59857;DHT22;45733;52.668;6.860;2023-02-04T13:08:40;11.30;99.90
59857;DHT22;45733;52.668;6.860;2023-02-04T13:11:06;11.40;99.90
59857;DHT22;45733;52.668;6.860;2023-02-04T13:13:32;11.50;99.90
59857;DHT22;45733;52.668;6.860;2023-02-04T13:15:58;11.60;99.90
59857;DHT22;45733;52.668;6.860;2023-02-04T13:18:36;11.50;99.90
59857;DHT22;45733;52.668;6.860;2023-02-04T13:21:05;11.70;99.90
59857;DHT22;45733;52.668;6.860;2023-02-04T13:23:37;11.60;99.90
59857;DHT22;45733;52.668;6.860;2023-02-04T13:26:06;11.40;99.90
59857;DHT22;45733;52.668;6.860;2023-02-04T13:28:53;11.20;99.90
59857;DHT22;45733;52.668;6.860;2023-02-04T13:31:45;11.10;99.90
59857;DHT22;45733;52.668;6.860;2023-02-04T13:34:11;11.40;99.90
59857;DHT22;45733;52.668;6.860;2023-02-04T13:36:43;11.30;99.90
59857;DHT22;45733;52.668;6.860;2023-02-04T13:39:14;11.50;99.90
59857;DHT22;45733;52.668;6.860;2023-02-04T13:41:43;11.50;99.90
59857;DHT22;45733;52.668;6.860;2023-02-04T13:44:31;11.00;99.90
59857;DHT22;45733;52.668;6.860;2023-02-04T13:47:00;10.80;99.90
59857;DHT22;45733;52.668;6.860;2023-02-04T13:49:28;10.50;99.90
59857;DHT22;45733;52.668;6.860;2023-02-04T13:51:57;11.00;99.90
59857;DHT22;45733;52.668;6.860;2023-02-04T13:54:26;11.00;99.90
59857;DHT22;45733;52.668;6.860;2023-02-04T13:56:52;11.50;99.90
59857;DHT22;45733;52.668;6.860;2023-02-04T13:59:20;11.30;99.90
59857;DHT22;45733;52.668;6.860;2023-02-04T14:01:46;10.50;99.90
59857;DHT22;45733;52.668;6.860;2023-02-04T14:04:12;9.50;99.90
59857;DHT22;45733;52.668;6.860;2023-02-04T14:06:38;10.10;99.90
59857;DHT22;45733;52.668;6.860;2023-02-04T14:09:17;10.30;99.90
59857;DHT22;45733;52.668;6.860;2023-02-04T14:15:21;9.80;99.90
59857;DHT22;45733;52.668;6.860;2023-02-04T14:17:56;9.70;99.90
59857;DHT22;45733;52.668;6.860;2023-02-04T14:20:22;10.20;99.90
59857;DHT22;45733;52.668;6.860;2023-02-04T14:22:50;9.80;99.90
59857;DHT22;45733;52.668;6.860;2023-02-04T14:25:16;10.20;99.90
59857;DHT22;45733;52.668;6.860;2023-02-04T14:27:45;10.40;99.90
59857;DHT22;45733;52.668;6.860;2023-02-04T14:30:20;9.50;99.90
59857;DHT22;45733;52.668;6.860;2023-02-04T14:32:58;9.80;99.90
59857;DHT22;45733;52.668;6.860;2023-02-04T14:36:06;9.10;99.90
59857;DHT22;45733;52.668;6.860;2023-02-04T14:38:35;9.10;99.90
59857;DHT22;45733;52.668;6.860;2023-02-04T14:41:04;9.10;99.90
59857;DHT22;45733;52.668;6.860;2023-02-04T14:44:03;9.10;99.90
59857;DHT22;45733;52.668;6.860;2023-02-04T14:46:54;9.00;99.90
59857;DHT22;45733;52.668;6.860;2023-02-04T14:49:23;9.20;99.90
59857;DHT22;45733;52.668;6.860;2023-02-04T14:51:55;9.40;99.90
59857;DHT22;45733;52.668;6.860;2023-02-04T14:54:21;9.10;99.90
59857;DHT22;45733;52.668;6.860;2023-02-04T14:56:46;9.10;99.90
59857;DHT22;45733;52.668;6.860;2023-02-04T14:59:21;9.00;99.90
59857;DHT22;45733;52.668;6.860;2023-02-04T15:01:46;8.80;99.90
59857;DHT22;45733;52.668;6.860;2023-02-04T15:04:12;8.60;99.90
59857;DHT22;45733;52.668;6.860;2023-02-04T15:06:38;8.70;99.90
59857;DHT22;45733;52.668;6.860;2023-02-04T15:09:03;8.90;99.90
59857;DHT22;45733;52.668;6.860;2023-02-04T15:11:29;8.60;99.90
59857;DHT22;45733;52.668;6.860;2023-02-04T15:13:55;8.50;99.90
59857;DHT22;45733;52.668;6.860;2023-02-04T15:16:21;8.50;99.90
59857;DHT22;45733;52.668;6.860;2023-02-04T15:18:49;8.50;99.90
59857;DHT22;45733;52.668;6.860;2023-02-04T15:21:51;8.40;99.90
59857;DHT22;45733;52.668;6.860;2023-02-04T15:24:21;8.30;99.90
59857;DHT22;45733;52.668;6.860;2023-02-04T15:26:52;8.40;99.90
59857;DHT22;45733;52.668;6.860;2023-02-04T15:29:20;8.00;99.90
59857;DHT22;45733;52.668;6.860;2023-02-04T15:31:48;7.90;99.90
59857;DHT22;45733;52.668;6.860;2023-02-04T15:34:14;7.80;99.90
59857;DHT22;45733;52.668;6.860;2023-02-04T15:36:39;7.70;99.90
59857;DHT22;45733;52.668;6.860;2023-02-04T15:39:08;7.70;99.90
59857;DHT22;45733;52.668;6.860;2023-02-04T15:41:33;7.60;99.90
59857;DHT22;45733;52.668;6.860;2023-02-04T15:43:59;7.50;99.90
59857;DHT22;45733;52.668;6.860;2023-02-04T15:46:25;7.50;99.90
59857;DHT22;45733;52.668;6.860;2023-02-04T15:48:51;7.40;99.90
59857;DHT22;45733;52.668;6.860;2023-02-04T15:51:16;7.30;99.90
59857;DHT22;45733;52.668;6.860;2023-02-04T15:53:42;7.40;99.90
59857;DHT22;45733;52.668;6.860;2023-02-04T15:56:11;7.30;99.90
59857;DHT22;45733;52.668;6.860;2023-02-04T15:58:37;7.20;99.90
59857;DHT22;45733;52.668;6.860;2023-02-04T16:01:08;7.10;99.90
59857;DHT22;45733;52.668;6.860;2023-02-04T16:03:48;7.00;99.90
59857;DHT22;45733;52.668;6.860;2023-02-04T16:06:24;6.90;99.90
59857;DHT22;45733;52.668;6.860;2023-02-04T16:08:50;6.80;99.90
59857;DHT22;45733;52.668;6.860;2023-02-04T16:11:18;6.80;99.90
59857;DHT22;45733;52.668;6.860;2023-02-04T16:13:44;6.80;99.90
59857;DHT22;45733;52.668;6.860;2023-02-04T16:16:13;6.80;99.90
59857;DHT22;45733;52.668;6.860;2023-02-04T16:18:44;6.60;99.90
59857;DHT22;45733;52.668;6.860;2023-02-04T16:21:10;6.60;99.90
59857;DHT22;45733;52.668;6.860;2023-02-04T16:23:36;6.50;99.90
59857;DHT22;45733;52.668;6.860;2023-02-04T16:26:01;6.40;99.90
59857;DHT22;45733;52.668;6.860;2023-02-04T16:28:30;6.50;99.90
59857;DHT22;45733;52.668;6.860;2023-02-04T16:30:56;6.40;99.90
59857;DHT22;45733;52.668;6.860;2023-02-04T16:33:21;6.40;99.90
59857;DHT22;45733;52.668;6.860;2023-02-04T16:35:59;6.30;99.90
59857;DHT22;45733;52.668;6.860;2023-02-04T16:38:36;6.30;99.90
59857;DHT22;45733;52.668;6.860;2023-02-04T16:41:05;6.30;99.90
59857;DHT22;45733;52.668;6.860;2023-02-04T16:43:35;6.20;99.90
59857;DHT22;45733;52.668;6.860;2023-02-04T16:46:03;6.20;99.90
59857;DHT22;45733;52.668;6.860;2023-02-04T16:51:53;6.00;99.90
59857;DHT22;45733;52.668;6.860;2023-02-04T16:54:32;6.00;99.90
59857;DHT22;45733;52.668;6.860;2023-02-04T17:04:34;5.60;99.90
59857;DHT22;45733;52.668;6.860;2023-02-04T17:07:14;5.50;99.90
59857;DHT22;45733;52.668;6.860;2023-02-04T17:10:09;5.50;99.90
59857;DHT22;45733;52.668;6.860;2023-02-04T17:16:08;5.50;99.90
59857;DHT22;45733;52.668;6.860;2023-02-04T17:18:43;5.40;99.90
59857;DHT22;45733;52.668;6.860;2023-02-04T17:24:37;5.50;99.90
59857;DHT22;45733;52.668;6.860;2023-02-04T17:27:25;5.40;99.90
59857;DHT22;45733;52.668;6.860;2023-02-04T17:32:51;5.20;99.90
59857;DHT22;45733;52.668;6.860;2023-02-04T17:35:29;5.20;99.90
59857;DHT22;45733;52.668;6.860;2023-02-04T17:38:09;5.30;99.90
59857;DHT22;45733;52.668;6.860;2023-02-04T17:40:38;5.20;99.90
59857;DHT22;45733;52.668;6.860;2023-02-04T17:43:19;5.10;99.90
59857;DHT22;45733;52.668;6.860;2023-02-04T17:48:43;5.00;99.90
59857;DHT22;45733;52.668;6.860;2023-02-04T17:55:22;5.10;99.90
59857;DHT22;45733;52.668;6.860;2023-02-04T17:58:47;4.90;99.90
59857;DHT22;45733;52.668;6.860;2023-02-04T18:01:55;5.00;99.90
59857;DHT22;45733;52.668;6.860;2023-02-04T18:05:15;5.10;99.90
59857;DHT22;45733;52.668;6.860;2023-02-04T18:07:58;4.90;99.90
59857;DHT22;45733;52.668;6.860;2023-02-04T18:10:45;4.90;99.90
59857;DHT22;45733;52.668;6.860;2023-02-04T18:13:37;4.90;99.90
59857;DHT22;45733;52.668;6.860;2023-02-04T18:16:41;4.90;99.90
59857;DHT22;45733;52.668;6.860;2023-02-04T18:19:34;4.90;99.90
59857;DHT22;45733;52.668;6.860;2023-02-04T18:22:12;4.80;99.90
59857;DHT22;45733;52.668;6.860;2023-02-04T18:24:46;4.80;99.90
59857;DHT22;45733;52.668;6.860;2023-02-04T18:27:26;4.70;99.90
59857;DHT22;45733;52.668;6.860;2023-02-04T18:29:54;4.80;99.90
59857;DHT22;45733;52.668;6.860;2023-02-04T18:32:39;4.70;99.90
59857;DHT22;45733;52.668;6.860;2023-02-04T18:41:38;4.90;99.90
59857;DHT22;45733;52.668;6.860;2023-02-04T18:47:50;4.90;99.90
59857;DHT22;45733;52.668;6.860;2023-02-04T18:50:35;4.80;99.90
59857;DHT22;45733;52.668;6.860;2023-02-04T18:53:29;4.80;99.90